createdAt,value
2018-06-17T00:01:07.963Z,15.37
2018-06-17T00:03:36.410Z,14.57
2018-06-17T00:06:05.224Z,15.37
2018-06-17T00:08:34.036Z,15.20
2018-06-17T00:11:02.556Z,15.10
2018-06-17T00:13:47.535Z,15.13
2018-06-17T00:16:16.087Z,16.33
2018-06-17T00:18:45.783Z,16.40
2018-06-17T00:21:14.263Z,17.40
2018-06-17T00:23:42.706Z,16.80
2018-06-17T00:26:11.160Z,16.47
2018-06-17T00:28:39.633Z,17.87
2018-06-17T00:31:08.106Z,18.30
2018-06-17T00:33:36.583Z,17.60
2018-06-17T00:36:05.048Z,16.83
2018-06-17T00:38:33.566Z,16.90
2018-06-17T00:41:02.028Z,16.60
2018-06-17T00:43:30.494Z,18.03
2018-06-17T00:45:58.988Z,18.17
2018-06-17T00:48:27.449Z,17.47
2018-06-17T00:50:55.907Z,17.43
2018-06-17T00:53:24.392Z,17.67
2018-06-17T00:55:52.861Z,17.93
2018-06-17T00:58:21.374Z,18.40
2018-06-17T01:00:49.863Z,18.30
2018-06-17T01:03:18.322Z,18.17
2018-06-17T01:05:46.866Z,19.40
2018-06-17T01:08:15.347Z,17.97
2018-06-17T01:10:43.784Z,18.47
2018-06-17T01:13:12.263Z,17.27
2018-06-17T01:15:40.783Z,18.40
2018-06-17T01:18:09.246Z,18.53
2018-06-17T01:20:38.231Z,18.90
2018-06-17T01:23:06.826Z,18.77
2018-06-17T01:25:35.250Z,18.27
2018-06-17T01:28:03.776Z,18.73
2018-06-17T01:30:32.235Z,18.67
2018-06-17T01:33:00.691Z,17.50
2018-06-17T01:35:29.131Z,17.97
2018-06-17T01:37:57.636Z,18.00
2018-06-17T01:40:26.118Z,15.53
2018-06-17T01:42:54.574Z,14.50
2018-06-17T01:45:23.053Z,13.97
2018-06-17T01:47:51.497Z,14.93
2018-06-17T01:50:19.951Z,13.47
2018-06-17T01:52:48.388Z,14.07
2018-06-17T01:55:16.858Z,13.93
2018-06-17T01:57:44.995Z,14.37
2018-06-17T02:00:13.502Z,14.50
2018-06-17T02:02:42.007Z,14.83
2018-06-17T02:05:15.802Z,15.47
2018-06-17T02:07:49.499Z,14.17
2018-06-17T02:12:29.843Z,15.50
2018-06-17T02:14:59.286Z,13.00
2018-06-17T02:17:28.370Z,11.80
2018-06-17T02:19:57.136Z,12.40
2018-06-17T02:22:25.627Z,12.30
2018-06-17T02:24:59.653Z,12.47
2018-06-17T02:27:28.237Z,11.03
2018-06-17T02:29:56.749Z,10.30
2018-06-17T02:32:25.175Z,11.80
2018-06-17T02:34:53.669Z,11.10
2018-06-17T02:37:22.079Z,10.77
2018-06-17T02:39:50.526Z,10.73
2018-06-17T02:42:18.947Z,10.90
2018-06-17T02:44:51.606Z,10.53
2018-06-17T02:49:32.188Z,9.90
2018-06-17T02:52:05.932Z,9.53
2018-06-17T02:54:39.762Z,9.97
2018-06-17T02:57:09.121Z,10.33
2018-06-17T02:59:37.609Z,9.60
2018-06-17T03:02:06.171Z,10.70
2018-06-17T03:04:34.647Z,10.10
2018-06-17T03:07:03.467Z,9.27
2018-06-17T03:09:31.918Z,10.13
2018-06-17T03:12:00.391Z,9.30
2018-06-17T03:14:28.842Z,9.43
2018-06-17T03:16:57.317Z,9.60
2018-06-17T03:19:25.766Z,8.80
2018-06-17T03:21:53.905Z,9.40
2018-06-17T03:24:27.634Z,9.57
2018-06-17T03:27:01.771Z,8.50
2018-06-17T03:29:35.499Z,8.03
2018-06-17T03:32:09.218Z,8.90
2018-06-17T03:34:37.687Z,8.73
2018-06-17T03:37:06.865Z,8.13
2018-06-17T03:39:35.318Z,8.43
2018-06-17T03:42:03.759Z,8.40
2018-06-17T03:44:32.191Z,7.73
2018-06-17T03:47:00.631Z,7.07
2018-06-17T03:49:29.075Z,6.80
2018-06-17T03:51:57.515Z,5.60
2018-06-17T03:54:25.971Z,6.23
2018-06-17T03:56:54.403Z,6.07
2018-06-17T03:59:22.858Z,5.27
2018-06-17T04:01:51.614Z,5.87
2018-06-17T04:04:22.066Z,5.33
2018-06-17T04:06:50.782Z,4.80
2018-06-17T04:09:19.386Z,4.50
2018-06-17T04:11:48.113Z,4.50
2018-06-17T04:14:16.601Z,4.73
2018-06-17T04:16:45.032Z,4.43
2018-06-17T04:19:13.943Z,4.57
2018-06-17T04:21:43.614Z,4.27
2018-06-17T04:24:12.438Z,3.83
2018-06-17T04:26:41.112Z,4.17
2018-06-17T04:29:09.574Z,4.30
2018-06-17T04:31:38.035Z,4.70
2018-06-17T04:34:07.712Z,4.13
2018-06-17T04:36:37.247Z,4.10
2018-06-17T04:39:07.879Z,4.77
2018-06-17T04:41:36.343Z,4.50
2018-06-17T04:44:05.226Z,4.40
2018-06-17T04:46:34.363Z,4.97
2018-06-17T04:49:02.872Z,4.67
2018-06-17T04:51:31.319Z,4.53
2018-06-17T04:53:59.801Z,5.03
2018-06-17T04:56:28.259Z,4.77
2018-06-17T04:58:57.122Z,5.20
2018-06-17T05:01:25.999Z,4.00
2018-06-17T05:03:54.820Z,4.90
2018-06-17T05:06:23.277Z,4.30
2018-06-17T05:08:51.888Z,4.40
2018-06-17T05:11:20.358Z,4.57
2018-06-17T05:13:49.134Z,4.43
2018-06-17T05:16:17.591Z,4.40
2018-06-17T05:18:46.746Z,4.33
2018-06-17T05:21:15.202Z,5.20
2018-06-17T05:23:43.683Z,4.43
2018-06-17T05:26:12.147Z,4.30
2018-06-17T05:28:41.286Z,4.37
2018-06-17T05:31:09.750Z,4.30
2018-06-17T05:33:38.215Z,4.40
2018-06-17T05:36:06.948Z,4.40
2018-06-17T05:38:36.504Z,4.27
2018-06-17T05:41:05.385Z,3.97
2018-06-17T05:43:34.323Z,4.03
2018-06-17T05:46:03.178Z,4.20
2018-06-17T05:48:31.626Z,4.60
2018-06-17T05:51:00.118Z,3.83
2018-06-17T05:53:29.459Z,4.70
2018-06-17T05:55:57.935Z,4.13
2018-06-17T05:58:26.399Z,3.63
2018-06-17T06:00:54.882Z,3.47
2018-06-17T06:03:24.263Z,3.80
2018-06-17T06:05:53.111Z,3.90
2018-06-17T06:08:22.034Z,4.30
2018-06-17T06:10:51.835Z,3.40
2018-06-17T06:13:21.057Z,3.10
2018-06-17T06:15:49.523Z,3.27
2018-06-17T06:18:18.555Z,3.20
2018-06-17T06:20:48.223Z,2.13
2018-06-17T06:23:16.683Z,2.60
2018-06-17T06:25:45.229Z,2.70
2018-06-17T06:28:15.283Z,2.47
2018-06-17T06:30:43.755Z,2.20
2018-06-17T06:33:12.331Z,2.20
2018-06-17T06:35:40.811Z,2.58
2018-06-17T06:38:09.322Z,1.95
2018-06-17T06:40:37.812Z,1.90
2018-06-17T06:43:06.543Z,2.45
2018-06-17T06:45:35.379Z,2.08
2018-06-17T06:48:03.853Z,2.30
2018-06-17T06:50:32.562Z,2.27
2018-06-17T06:53:01.107Z,2.00
2018-06-17T06:55:29.596Z,2.37
2018-06-17T06:57:58.551Z,2.10
2018-06-17T07:00:27.155Z,2.02
2018-06-17T07:03:06.902Z,2.12
2018-06-17T07:05:46.914Z,1.98
2018-06-17T07:08:26.499Z,1.80
2018-06-17T07:10:54.951Z,2.10
2018-06-17T07:13:23.456Z,1.95
2018-06-17T07:16:04.162Z,2.25
2018-06-17T07:18:38.867Z,2.22
2018-06-17T07:21:07.574Z,2.00
2018-06-17T07:23:36.017Z,2.15
2018-06-17T07:26:26.682Z,2.47
2018-06-17T07:29:06.643Z,2.30
2018-06-17T07:31:35.098Z,2.45
2018-06-17T07:34:03.555Z,2.52
2018-06-17T07:36:32.963Z,2.25
2018-06-17T07:39:11.278Z,2.22
2018-06-17T07:41:40.654Z,2.20
2018-06-17T07:44:09.714Z,1.82
2018-06-17T07:46:39.619Z,2.00
2018-06-17T07:49:29.298Z,2.50
2018-06-17T07:52:09.867Z,2.27
2018-06-17T07:54:39.436Z,2.45
2018-06-17T07:57:09.382Z,2.55
2018-06-17T07:59:37.834Z,2.58
2018-06-17T08:02:07.408Z,2.20
2018-06-17T08:04:36.099Z,2.60
2018-06-17T08:07:04.622Z,2.10
2018-06-17T08:09:33.076Z,2.12
2018-06-17T08:12:01.765Z,2.35
2018-06-17T08:14:30.313Z,2.30
2018-06-17T08:16:58.919Z,2.62
2018-06-17T08:19:28.575Z,2.67
2018-06-17T08:21:57.817Z,2.85
2018-06-17T08:24:26.689Z,2.22
2018-06-17T08:26:56.050Z,2.45
2018-06-17T08:29:24.882Z,2.25
2018-06-17T08:31:54.122Z,2.33
2018-06-17T08:34:22.678Z,2.30
2018-06-17T08:36:51.172Z,2.25
2018-06-17T08:39:20.854Z,2.35
2018-06-17T08:41:49.303Z,2.37
2018-06-17T08:44:18.440Z,2.50
2018-06-17T08:46:47.643Z,2.42
2018-06-17T08:49:16.446Z,2.92
2018-06-17T08:51:44.884Z,2.72
2018-06-17T08:54:13.332Z,2.70
2018-06-17T08:56:41.771Z,2.90
2018-06-17T08:59:10.230Z,2.70
2018-06-17T09:01:38.665Z,2.42
2018-06-17T09:04:07.086Z,2.57
2018-06-17T09:06:35.536Z,2.93
2018-06-17T09:09:06.661Z,2.73
2018-06-17T09:11:35.308Z,2.77
2018-06-17T09:14:04.772Z,2.33
2018-06-17T09:16:33.518Z,2.77
2018-06-17T09:19:02.036Z,2.40
2018-06-17T09:21:30.551Z,2.90
2018-06-17T09:23:59.027Z,2.57
2018-06-17T09:26:27.489Z,2.63
2018-06-17T09:28:56.963Z,2.70
2018-06-17T09:31:25.457Z,3.43
2018-06-17T09:33:54.549Z,3.30
2018-06-17T09:36:23.094Z,2.60
2018-06-17T09:38:51.537Z,2.90
2018-06-17T09:41:20.712Z,2.77
2018-06-17T09:43:49.454Z,3.43
2018-06-17T09:46:18.146Z,2.77
2018-06-17T09:48:46.393Z,2.37
2018-06-17T09:51:15.067Z,2.63
2018-06-17T09:53:44.011Z,2.90
2018-06-17T09:56:12.455Z,2.83
2018-06-17T09:58:40.948Z,2.80
2018-06-17T10:01:09.381Z,2.73
2018-06-17T10:03:37.816Z,3.40
2018-06-17T10:06:06.236Z,2.83
2018-06-17T10:08:34.667Z,3.23
2018-06-17T10:11:04.308Z,3.13
2018-06-17T10:13:35.880Z,3.20
2018-06-17T10:16:04.703Z,2.97
2018-06-17T10:18:33.167Z,2.70
2018-06-17T10:21:01.593Z,3.90
2018-06-17T10:23:30.103Z,3.00
2018-06-17T10:25:58.527Z,3.40
2018-06-17T10:28:27.828Z,3.10
2018-06-17T10:30:57.017Z,3.37
2018-06-17T10:33:26.964Z,3.47
2018-06-17T10:35:55.570Z,3.27
2018-06-17T10:38:24.047Z,3.23
2018-06-17T10:40:52.519Z,3.50
2018-06-17T10:43:23.290Z,2.93
2018-06-17T10:45:52.578Z,3.43
2018-06-17T10:48:22.248Z,3.33
2018-06-17T10:50:50.706Z,2.93
2018-06-17T10:53:19.171Z,2.67
2018-06-17T10:55:47.689Z,3.20
2018-06-17T10:58:16.129Z,2.60
2018-06-17T11:00:44.620Z,2.80
2018-06-17T11:03:13.104Z,2.63
2018-06-17T11:05:42.031Z,2.80
2018-06-17T11:08:10.428Z,2.93
2018-06-17T11:10:38.899Z,2.93
2018-06-17T11:13:07.361Z,2.83
2018-06-17T11:15:35.834Z,3.40
2018-06-17T11:18:04.260Z,2.70
2018-06-17T11:20:32.782Z,3.07
2018-06-17T11:23:01.540Z,3.37
2018-06-17T11:25:29.981Z,3.60
2018-06-17T11:27:58.426Z,3.30
2018-06-17T11:30:26.859Z,3.30
2018-06-17T11:32:55.316Z,3.57
2018-06-17T11:35:23.742Z,3.70
2018-06-17T11:37:52.182Z,3.07
2018-06-17T11:40:20.629Z,3.40
2018-06-17T11:42:49.227Z,3.20
2018-06-17T11:45:17.679Z,3.00
2018-06-17T11:47:46.104Z,2.70
2018-06-17T11:50:14.583Z,3.10
2018-06-17T11:52:43.003Z,2.80
2018-06-17T11:55:11.478Z,3.13
2018-06-17T11:57:39.966Z,3.13
2018-06-17T12:00:08.418Z,2.60
2018-06-17T12:02:36.931Z,3.13
2018-06-17T12:05:05.410Z,2.63
2018-06-17T12:07:33.906Z,2.33
2018-06-17T12:10:02.379Z,2.40
2018-06-17T12:12:30.804Z,3.13
2018-06-17T12:14:59.262Z,3.63
2018-06-17T12:17:27.704Z,2.77
2018-06-17T12:19:56.151Z,2.62
2018-06-17T12:22:24.641Z,2.57
2018-06-17T12:24:53.161Z,2.60
2018-06-17T12:27:21.595Z,2.40
2018-06-17T12:29:50.022Z,2.87
2018-06-17T12:32:18.512Z,2.00
2018-06-17T12:34:46.952Z,2.70
2018-06-17T12:37:15.487Z,2.63
2018-06-17T12:39:43.923Z,2.70
2018-06-17T12:42:12.567Z,2.70
2018-06-17T12:44:41.171Z,2.52
2018-06-17T12:47:09.640Z,2.47
2018-06-17T12:49:38.170Z,2.30
2018-06-17T12:52:06.623Z,2.27
2018-06-17T12:54:35.063Z,2.40
2018-06-17T12:57:03.504Z,2.43
2018-06-17T12:59:31.968Z,2.03
2018-06-17T13:02:00.505Z,2.50
2018-06-17T13:04:28.978Z,2.77
2018-06-17T13:06:57.402Z,2.70
2018-06-17T13:09:25.856Z,2.20
2018-06-17T13:11:54.311Z,3.00
2018-06-17T13:14:22.743Z,2.40
2018-06-17T13:16:51.176Z,2.60
2018-06-17T13:19:19.640Z,2.73
2018-06-17T13:21:48.071Z,3.10
2018-06-17T13:24:16.487Z,2.80
2018-06-17T13:26:44.919Z,2.90
2018-06-17T13:29:13.386Z,3.00
2018-06-17T13:31:41.832Z,2.60
2018-06-17T13:34:10.286Z,2.70
2018-06-17T13:36:38.723Z,3.37
2018-06-17T13:39:08.182Z,3.00
2018-06-17T13:41:36.621Z,2.63
2018-06-17T13:44:05.315Z,3.10
2018-06-17T13:46:33.804Z,2.30
2018-06-17T13:49:02.274Z,3.13
2018-06-17T13:51:30.824Z,3.17
2018-06-17T13:53:59.726Z,2.87
2018-06-17T13:56:28.150Z,2.63
2018-06-17T13:58:56.594Z,2.60
2018-06-17T14:01:25.039Z,2.57
2018-06-17T14:03:53.519Z,2.80
2018-06-17T14:06:21.939Z,2.60
2018-06-17T14:08:50.382Z,3.13
2018-06-17T14:11:18.823Z,3.17
2018-06-17T14:13:47.243Z,2.80
2018-06-17T14:16:15.674Z,2.83
2018-06-17T14:18:44.131Z,2.60
2018-06-17T14:21:12.549Z,2.90
2018-06-17T14:23:41.006Z,3.17
2018-06-17T14:26:09.439Z,2.90
2018-06-17T14:28:37.874Z,3.50
2018-06-17T14:31:06.325Z,3.03
2018-06-17T14:33:34.769Z,3.03
2018-06-17T14:36:03.194Z,2.90
2018-06-17T14:38:31.617Z,3.37
2018-06-17T14:41:05.358Z,3.30
2018-06-17T14:43:39.074Z,2.93
2018-06-17T14:46:12.582Z,3.50
2018-06-17T14:48:46.329Z,3.10
2018-06-17T14:51:20.127Z,2.80
2018-06-17T14:53:48.542Z,3.80
2018-06-17T14:56:17.028Z,3.60
2018-06-17T14:58:45.470Z,3.60
2018-06-17T15:01:13.955Z,4.40
2018-06-17T15:03:42.424Z,3.60
2018-06-17T15:06:10.861Z,4.20
2018-06-17T15:08:39.480Z,3.93
2018-06-17T15:11:07.912Z,3.67
2018-06-17T15:13:36.341Z,4.10
2018-06-17T15:16:04.766Z,3.83
2018-06-17T15:18:33.207Z,3.60
2018-06-17T15:21:01.639Z,3.30
2018-06-17T15:23:30.191Z,3.77
2018-06-17T15:25:58.633Z,3.90
2018-06-17T15:28:26.747Z,3.63
2018-06-17T15:30:59.471Z,3.27
2018-06-17T15:33:33.287Z,3.27
2018-06-17T15:36:06.858Z,3.33
2018-06-17T15:38:40.427Z,3.40
2018-06-17T15:41:15.536Z,3.27
2018-06-17T15:43:43.967Z,3.50
2018-06-17T15:46:12.386Z,3.20
2018-06-17T15:48:40.835Z,3.60
2018-06-17T15:51:09.267Z,3.40
2018-06-17T15:53:38.057Z,3.20
2018-06-17T15:56:06.478Z,3.03
2018-06-17T15:58:34.949Z,3.47
2018-06-17T16:01:03.417Z,3.40
2018-06-17T16:03:31.895Z,3.40
2018-06-17T16:06:00.330Z,3.53
2018-06-17T16:08:28.789Z,3.87
2018-06-17T16:10:57.308Z,4.03
2018-06-17T16:13:30.986Z,4.00
2018-06-17T16:16:04.562Z,4.10
2018-06-17T16:18:38.194Z,4.43
2018-06-17T16:21:08.087Z,3.90
2018-06-17T16:23:36.551Z,4.00
2018-06-17T16:26:05.030Z,3.40
2018-06-17T16:28:33.462Z,4.37
2018-06-17T16:31:01.918Z,4.33
2018-06-17T16:33:30.457Z,4.23
2018-06-17T16:35:58.894Z,4.10
2018-06-17T16:38:27.310Z,4.23
2018-06-17T16:40:55.751Z,3.60
2018-06-17T16:43:24.380Z,3.83
2018-06-17T16:45:52.830Z,3.13
2018-06-17T16:48:21.259Z,3.70
2018-06-17T16:50:54.811Z,3.93
2018-06-17T16:53:28.536Z,3.20
2018-06-17T16:56:02.249Z,3.83
2018-06-17T16:58:35.963Z,3.60
2018-06-17T17:01:04.129Z,3.80
2018-06-17T17:03:32.569Z,3.33
2018-06-17T17:06:01.140Z,3.63
2018-06-17T17:08:29.566Z,3.97
2018-06-17T17:10:58.011Z,3.73
2018-06-17T17:13:26.489Z,3.50
2018-06-17T17:15:54.936Z,3.53
2018-06-17T17:18:23.382Z,4.20
2018-06-17T17:20:51.870Z,3.10
2018-06-17T17:23:20.411Z,3.87
2018-06-17T17:25:48.790Z,3.30
2018-06-17T17:28:17.251Z,3.27
2018-06-17T17:30:49.039Z,3.70
2018-06-17T17:33:22.602Z,4.20
2018-06-17T17:35:56.356Z,4.30
2018-06-17T17:38:33.935Z,4.30
2018-06-17T17:41:04.230Z,3.57
2018-06-17T17:43:32.369Z,3.83
2018-06-17T17:46:06.139Z,4.10
2018-06-17T17:48:34.587Z,4.50
2018-06-17T17:51:03.310Z,3.90
2018-06-17T17:53:31.774Z,3.80
2018-06-17T17:56:00.685Z,4.00
2018-06-17T17:58:29.536Z,3.40
2018-06-17T18:00:58.027Z,3.57
2018-06-17T18:03:26.453Z,3.70
2018-06-17T18:05:54.932Z,4.17
2018-06-17T18:08:23.355Z,4.10
2018-06-17T18:10:52.147Z,4.30
2018-06-17T18:13:20.592Z,3.97
2018-06-17T18:15:49.014Z,3.70
2018-06-17T18:18:17.442Z,4.00
2018-06-17T18:20:45.933Z,4.10
2018-06-17T18:23:14.354Z,4.10
2018-06-17T18:25:48.194Z,4.30
2018-06-17T18:28:22.051Z,3.93
2018-06-17T18:31:00.422Z,3.53
2018-06-17T18:33:34.160Z,3.43
2018-06-17T18:36:10.155Z,3.77
2018-06-17T18:38:40.230Z,3.43
2018-06-17T18:41:09.271Z,3.90
2018-06-17T18:43:37.432Z,3.90
2018-06-17T18:46:05.882Z,4.40
2018-06-17T18:48:34.330Z,4.03
2018-06-17T18:51:02.742Z,4.67
2018-06-17T18:53:31.278Z,4.00
2018-06-17T18:55:59.722Z,3.97
2018-06-17T18:58:28.363Z,4.00
2018-06-17T19:00:56.831Z,4.43
2018-06-17T19:03:25.298Z,4.30
2018-06-17T19:05:53.758Z,4.83
2018-06-17T19:08:27.655Z,4.83
2018-06-17T19:11:02.054Z,5.97
2018-06-17T19:13:35.866Z,6.00
2018-06-17T19:16:12.226Z,6.30
2018-06-17T19:18:40.706Z,7.07
2018-06-17T19:21:09.714Z,6.70
2018-06-17T19:23:38.167Z,6.90
2018-06-17T19:26:06.873Z,7.47
2018-06-17T19:28:35.367Z,8.70
2018-06-17T19:31:03.823Z,7.80
2018-06-17T19:33:32.317Z,8.17
2018-06-17T19:36:00.774Z,7.83
2018-06-17T19:38:29.202Z,8.73
2018-06-17T19:40:57.746Z,8.23
2018-06-17T19:43:26.121Z,8.67
2018-06-17T19:45:54.575Z,8.47
2018-06-17T19:48:23.053Z,8.53
2018-06-17T19:50:56.710Z,8.10
2018-06-17T19:53:30.580Z,7.97
2018-06-17T19:56:04.390Z,7.90
2018-06-17T19:58:38.065Z,7.20
2018-06-17T20:01:06.782Z,7.57
2018-06-17T20:03:35.240Z,6.60
2018-06-17T20:06:03.729Z,6.50
2018-06-17T20:08:32.173Z,7.00
2018-06-17T20:11:00.644Z,6.77
2018-06-17T20:13:29.093Z,7.60
2018-06-17T20:15:57.563Z,6.70
2018-06-17T20:18:26.018Z,6.53
2018-06-17T20:20:54.444Z,6.90
2018-06-17T20:23:22.883Z,7.67
2018-06-17T20:25:51.338Z,7.40
2018-06-17T20:28:20.343Z,7.03
2018-06-17T20:30:48.779Z,7.23
2018-06-17T20:33:22.661Z,7.13
2018-06-17T20:35:56.339Z,6.43
2018-06-17T20:38:29.915Z,7.43
2018-06-17T20:41:04.393Z,6.33
2018-06-17T20:43:38.171Z,6.30
2018-06-17T20:46:06.603Z,6.77
2018-06-17T20:48:35.023Z,6.03
2018-06-17T20:51:04.015Z,6.87
2018-06-17T20:53:32.482Z,6.60
2018-06-17T20:56:02.018Z,6.20
2018-06-17T20:58:30.445Z,6.30
2018-06-17T21:00:58.934Z,5.53
2018-06-17T21:03:27.439Z,5.07
2018-06-17T21:05:55.892Z,5.13
2018-06-17T21:08:24.361Z,4.80
2018-06-17T21:10:52.836Z,5.50
2018-06-17T21:13:21.754Z,5.30
2018-06-17T21:15:50.183Z,4.97
2018-06-17T21:18:22.839Z,5.77
2018-06-17T21:20:56.541Z,5.10
2018-06-17T21:23:30.399Z,5.30
2018-06-17T21:26:03.995Z,4.53
2018-06-17T21:28:32.447Z,5.03
2018-06-17T21:31:01.917Z,4.70
2018-06-17T21:33:30.346Z,5.17
2018-06-17T21:35:58.791Z,5.37
2018-06-17T21:38:27.309Z,5.80
2018-06-17T21:40:55.759Z,5.27
2018-06-17T21:43:24.165Z,5.63
2018-06-17T21:45:54.822Z,5.20
2018-06-17T21:48:23.302Z,5.53
2018-06-17T21:50:51.747Z,5.73
2018-06-17T21:53:20.232Z,5.80
2018-06-17T21:55:48.741Z,6.20
2018-06-17T21:58:22.366Z,5.80
2018-06-17T22:00:51.616Z,5.77
2018-06-17T22:03:20.119Z,6.43
2018-06-17T22:05:48.569Z,6.73
2018-06-17T22:08:22.296Z,5.50
2018-06-17T22:10:56.507Z,5.73
2018-06-17T22:13:26.727Z,5.27
2018-06-17T22:16:00.500Z,6.27
2018-06-17T22:18:29.733Z,5.50
2018-06-17T22:20:58.165Z,5.90
2018-06-17T22:23:26.622Z,5.50
2018-06-17T22:25:55.045Z,5.67
2018-06-17T22:28:23.227Z,6.10
2018-06-17T22:30:51.666Z,5.77
2018-06-17T22:33:20.130Z,6.10
2018-06-17T22:35:48.543Z,5.73
2018-06-17T22:38:17.045Z,6.20
2018-06-17T22:40:45.479Z,5.27
2018-06-17T22:43:13.906Z,5.63
2018-06-17T22:45:42.334Z,6.50
2018-06-17T22:48:10.919Z,6.10
2018-06-17T22:50:39.346Z,6.73
2018-06-17T22:55:19.111Z,5.70
2018-06-17T22:57:52.925Z,4.93
2018-06-17T23:00:26.490Z,5.77
2018-06-17T23:03:00.134Z,5.40
2018-06-17T23:05:34.005Z,5.37
2018-06-17T23:08:07.630Z,5.87
2018-06-17T23:10:36.965Z,5.40
2018-06-17T23:13:05.599Z,5.20
2018-06-17T23:15:34.042Z,4.60
2018-06-17T23:18:02.494Z,5.70
2018-06-17T23:20:30.938Z,5.80
2018-06-17T23:22:59.351Z,5.67
2018-06-17T23:25:27.788Z,5.60
2018-06-17T23:27:56.239Z,5.60
2018-06-17T23:30:24.696Z,5.27
2018-06-17T23:32:53.127Z,5.17
2018-06-17T23:35:21.581Z,5.43
2018-06-17T23:37:49.991Z,5.20
2018-06-17T23:40:18.846Z,5.83
2018-06-17T23:42:47.283Z,6.13
2018-06-17T23:45:15.730Z,5.70
2018-06-17T23:47:49.564Z,5.83
2018-06-17T23:50:23.379Z,6.23
2018-06-17T23:52:57.002Z,6.47
2018-06-17T23:55:30.577Z,6.57
2018-06-17T23:57:59.462Z,5.67
